sensor_id;sensor_type;location;lat;lon;timestamp;P1;durP1;ratioP1;P2;durP2;ratioP2
63714;SDS011;49858;48.956;9.076;2023-12-14T00:01:36;2.03;;;1.48;;
63714;SDS011;49858;48.956;9.076;2023-12-14T00:04:06;8.20;;;3.42;;
63714;SDS011;49858;48.956;9.076;2023-12-14T00:06:34;4.90;;;3.20;;
63714;SDS011;49858;48.956;9.076;2023-12-14T00:09:02;6.45;;;3.55;;
63714;SDS011;49858;48.956;9.076;2023-12-14T00:11:30;8.57;;;3.40;;
63714;SDS011;49858;48.956;9.076;2023-12-14T00:13:57;5.93;;;3.65;;
63714;SDS011;49858;48.956;9.076;2023-12-14T00:16:25;12.50;;;3.90;;
63714;SDS011;49858;48.956;9.076;2023-12-14T00:18:54;10.45;;;4.15;;
63714;SDS011;49858;48.956;9.076;2023-12-14T00:21:22;8.60;;;4.38;;
63714;SDS011;49858;48.956;9.076;2023-12-14T00:23:50;7.65;;;4.05;;
63714;SDS011;49858;48.956;9.076;2023-12-14T00:26:18;5.55;;;3.85;;
63714;SDS011;49858;48.956;9.076;2023-12-14T00:28:46;9.30;;;4.10;;
63714;SDS011;49858;48.956;9.076;2023-12-14T00:31:13;8.52;;;3.55;;
63714;SDS011;49858;48.956;9.076;2023-12-14T00:33:41;6.65;;;4.03;;
63714;SDS011;49858;48.956;9.076;2023-12-14T00:36:11;6.50;;;3.55;;
63714;SDS011;49858;48.956;9.076;2023-12-14T00:38:45;9.70;;;3.95;;
63714;SDS011;49858;48.956;9.076;2023-12-14T00:41:12;7.30;;;3.55;;
63714;SDS011;49858;48.956;9.076;2023-12-14T00:43:40;6.55;;;3.95;;
63714;SDS011;49858;48.956;9.076;2023-12-14T00:46:08;7.78;;;4.10;;
63714;SDS011;49858;48.956;9.076;2023-12-14T00:48:37;6.85;;;3.85;;
63714;SDS011;49858;48.956;9.076;2023-12-14T00:51:05;6.60;;;3.80;;
63714;SDS011;49858;48.956;9.076;2023-12-14T00:53:35;6.90;;;4.45;;
63714;SDS011;49858;48.956;9.076;2023-12-14T00:56:03;8.15;;;4.10;;
63714;SDS011;49858;48.956;9.076;2023-12-14T00:58:31;10.68;;;4.53;;
63714;SDS011;49858;48.956;9.076;2023-12-14T01:00:59;8.88;;;4.57;;
63714;SDS011;49858;48.956;9.076;2023-12-14T01:03:27;5.80;;;3.55;;
63714;SDS011;49858;48.956;9.076;2023-12-14T01:05:55;7.03;;;3.53;;
63714;SDS011;49858;48.956;9.076;2023-12-14T01:08:22;7.15;;;3.65;;
63714;SDS011;49858;48.956;9.076;2023-12-14T01:10:52;6.88;;;4.18;;
63714;SDS011;49858;48.956;9.076;2023-12-14T01:13:20;2.90;;;2.45;;
63714;SDS011;49858;48.956;9.076;2023-12-14T01:15:47;8.65;;;3.50;;
63714;SDS011;49858;48.956;9.076;2023-12-14T01:18:15;12.40;;;8.30;;
63714;SDS011;49858;48.956;9.076;2023-12-14T01:20:44;4.32;;;3.00;;
63714;SDS011;49858;48.956;9.076;2023-12-14T01:23:12;7.72;;;4.00;;
63714;SDS011;49858;48.956;9.076;2023-12-14T01:25:39;9.50;;;4.13;;
63714;SDS011;49858;48.956;9.076;2023-12-14T01:28:09;7.72;;;3.42;;
63714;SDS011;49858;48.956;9.076;2023-12-14T01:30:37;5.20;;;3.05;;
63714;SDS011;49858;48.956;9.076;2023-12-14T01:33:04;9.73;;;5.22;;
63714;SDS011;49858;48.956;9.076;2023-12-14T01:35:32;3.30;;;1.85;;
63714;SDS011;49858;48.956;9.076;2023-12-14T01:38:00;4.70;;;3.58;;
63714;SDS011;49858;48.956;9.076;2023-12-14T01:40:29;8.02;;;4.85;;
63714;SDS011;49858;48.956;9.076;2023-12-14T01:43:05;11.13;;;7.97;;
63714;SDS011;49858;48.956;9.076;2023-12-14T01:45:36;6.97;;;3.20;;
63714;SDS011;49858;48.956;9.076;2023-12-14T01:48:04;4.15;;;2.95;;
63714;SDS011;49858;48.956;9.076;2023-12-14T01:50:32;14.55;;;7.47;;
63714;SDS011;49858;48.956;9.076;2023-12-14T01:53:00;9.10;;;6.28;;
63714;SDS011;49858;48.956;9.076;2023-12-14T01:55:28;6.65;;;3.85;;
63714;SDS011;49858;48.956;9.076;2023-12-14T01:57:56;10.98;;;5.93;;
63714;SDS011;49858;48.956;9.076;2023-12-14T02:00:26;10.35;;;5.20;;
63714;SDS011;49858;48.956;9.076;2023-12-14T02:03:03;10.57;;;5.35;;
63714;SDS011;49858;48.956;9.076;2023-12-14T02:05:31;5.03;;;3.55;;
63714;SDS011;49858;48.956;9.076;2023-12-14T02:07:59;7.75;;;4.22;;
63714;SDS011;49858;48.956;9.076;2023-12-14T02:10:27;5.25;;;3.17;;
63714;SDS011;49858;48.956;9.076;2023-12-14T02:12:54;7.85;;;3.08;;
63714;SDS011;49858;48.956;9.076;2023-12-14T02:15:22;5.63;;;2.53;;
63714;SDS011;49858;48.956;9.076;2023-12-14T02:17:50;3.42;;;2.10;;
63714;SDS011;49858;48.956;9.076;2023-12-14T02:20:18;4.82;;;2.15;;
63714;SDS011;49858;48.956;9.076;2023-12-14T02:22:50;5.65;;;3.65;;
63714;SDS011;49858;48.956;9.076;2023-12-14T02:25:19;8.38;;;3.85;;
63714;SDS011;49858;48.956;9.076;2023-12-14T02:27:47;4.30;;;2.10;;
63714;SDS011;49858;48.956;9.076;2023-12-14T02:30:15;9.02;;;4.60;;
63714;SDS011;49858;48.956;9.076;2023-12-14T02:32:43;5.00;;;2.38;;
63714;SDS011;49858;48.956;9.076;2023-12-14T02:35:11;3.35;;;1.98;;
63714;SDS011;49858;48.956;9.076;2023-12-14T02:37:39;3.97;;;2.90;;
63714;SDS011;49858;48.956;9.076;2023-12-14T02:40:09;15.65;;;4.53;;
63714;SDS011;49858;48.956;9.076;2023-12-14T02:42:37;5.97;;;3.72;;
63714;SDS011;49858;48.956;9.076;2023-12-14T02:45:06;11.10;;;4.85;;
63714;SDS011;49858;48.956;9.076;2023-12-14T02:47:35;8.48;;;4.03;;
63714;SDS011;49858;48.956;9.076;2023-12-14T02:50:03;6.03;;;3.40;;
63714;SDS011;49858;48.956;9.076;2023-12-14T02:52:32;6.00;;;3.33;;
63714;SDS011;49858;48.956;9.076;2023-12-14T02:55:00;6.70;;;3.22;;
63714;SDS011;49858;48.956;9.076;2023-12-14T02:57:29;7.57;;;2.85;;
63714;SDS011;49858;48.956;9.076;2023-12-14T02:59:57;8.10;;;4.68;;
63714;SDS011;49858;48.956;9.076;2023-12-14T03:02:25;8.68;;;3.78;;
63714;SDS011;49858;48.956;9.076;2023-12-14T03:04:53;6.13;;;3.45;;
63714;SDS011;49858;48.956;9.076;2023-12-14T03:07:21;11.15;;;5.30;;
63714;SDS011;49858;48.956;9.076;2023-12-14T03:09:49;6.70;;;3.60;;
63714;SDS011;49858;48.956;9.076;2023-12-14T03:12:16;7.00;;;3.28;;
63714;SDS011;49858;48.956;9.076;2023-12-14T03:14:45;8.75;;;4.55;;
63714;SDS011;49858;48.956;9.076;2023-12-14T03:17:13;6.18;;;3.50;;
63714;SDS011;49858;48.956;9.076;2023-12-14T03:19:42;4.90;;;3.78;;
63714;SDS011;49858;48.956;9.076;2023-12-14T03:22:10;10.80;;;4.68;;
63714;SDS011;49858;48.956;9.076;2023-12-14T03:24:39;10.65;;;6.03;;
63714;SDS011;49858;48.956;9.076;2023-12-14T03:27:06;10.27;;;5.18;;
63714;SDS011;49858;48.956;9.076;2023-12-14T03:29:34;12.02;;;5.38;;
63714;SDS011;49858;48.956;9.076;2023-12-14T03:32:04;11.32;;;6.18;;
63714;SDS011;49858;48.956;9.076;2023-12-14T03:34:32;11.02;;;5.85;;
63714;SDS011;49858;48.956;9.076;2023-12-14T03:37:00;12.77;;;5.63;;
63714;SDS011;49858;48.956;9.076;2023-12-14T03:39:27;13.13;;;6.40;;
63714;SDS011;49858;48.956;9.076;2023-12-14T03:41:55;13.32;;;5.97;;
63714;SDS011;49858;48.956;9.076;2023-12-14T03:44:23;12.63;;;6.75;;
63714;SDS011;49858;48.956;9.076;2023-12-14T03:46:51;10.95;;;5.90;;
63714;SDS011;49858;48.956;9.076;2023-12-14T03:49:21;12.73;;;6.45;;
63714;SDS011;49858;48.956;9.076;2023-12-14T03:51:49;14.98;;;6.70;;
63714;SDS011;49858;48.956;9.076;2023-12-14T03:54:17;14.27;;;7.00;;
63714;SDS011;49858;48.956;9.076;2023-12-14T03:56:45;13.57;;;6.30;;
63714;SDS011;49858;48.956;9.076;2023-12-14T03:59:13;12.40;;;6.25;;
63714;SDS011;49858;48.956;9.076;2023-12-14T04:01:41;15.32;;;7.40;;
63714;SDS011;49858;48.956;9.076;2023-12-14T04:04:08;13.85;;;7.13;;
63714;SDS011;49858;48.956;9.076;2023-12-14T04:06:38;14.95;;;6.65;;
63714;SDS011;49858;48.956;9.076;2023-12-14T04:09:05;12.07;;;6.38;;
63714;SDS011;49858;48.956;9.076;2023-12-14T04:11:33;12.15;;;6.13;;
63714;SDS011;49858;48.956;9.076;2023-12-14T04:14:01;20.95;;;7.80;;
63714;SDS011;49858;48.956;9.076;2023-12-14T04:16:28;18.40;;;7.70;;
63714;SDS011;49858;48.956;9.076;2023-12-14T04:18:56;14.43;;;6.70;;
63714;SDS011;49858;48.956;9.076;2023-12-14T04:21:24;14.02;;;7.05;;
63714;SDS011;49858;48.956;9.076;2023-12-14T04:23:53;15.85;;;6.90;;
63714;SDS011;49858;48.956;9.076;2023-12-14T04:26:20;11.48;;;5.90;;
63714;SDS011;49858;48.956;9.076;2023-12-14T04:28:48;17.67;;;6.57;;
63714;SDS011;49858;48.956;9.076;2023-12-14T04:31:17;14.65;;;6.63;;
63714;SDS011;49858;48.956;9.076;2023-12-14T04:33:44;11.18;;;6.60;;
63714;SDS011;49858;48.956;9.076;2023-12-14T04:36:12;5.97;;;4.03;;
63714;SDS011;49858;48.956;9.076;2023-12-14T04:38:40;11.77;;;5.53;;
63714;SDS011;49858;48.956;9.076;2023-12-14T04:41:10;13.25;;;7.05;;
63714;SDS011;49858;48.956;9.076;2023-12-14T04:43:38;9.30;;;4.78;;
63714;SDS011;49858;48.956;9.076;2023-12-14T04:46:06;13.35;;;6.20;;
63714;SDS011;49858;48.956;9.076;2023-12-14T04:48:34;14.50;;;6.70;;
63714;SDS011;49858;48.956;9.076;2023-12-14T04:51:02;13.40;;;6.25;;
63714;SDS011;49858;48.956;9.076;2023-12-14T04:53:30;13.10;;;6.50;;
63714;SDS011;49858;48.956;9.076;2023-12-14T04:55:58;10.30;;;5.00;;
63714;SDS011;49858;48.956;9.076;2023-12-14T04:58:27;6.82;;;3.35;;
63714;SDS011;49858;48.956;9.076;2023-12-14T05:00:55;7.28;;;3.67;;
63714;SDS011;49858;48.956;9.076;2023-12-14T05:03:22;5.63;;;3.00;;
63714;SDS011;49858;48.956;9.076;2023-12-14T05:05:50;12.60;;;4.57;;
63714;SDS011;49858;48.956;9.076;2023-12-14T05:08:18;6.65;;;3.28;;
63714;SDS011;49858;48.956;9.076;2023-12-14T05:10:46;12.25;;;6.82;;
63714;SDS011;49858;48.956;9.076;2023-12-14T05:13:14;15.10;;;6.97;;
63714;SDS011;49858;48.956;9.076;2023-12-14T05:15:43;18.73;;;8.30;;
63714;SDS011;49858;48.956;9.076;2023-12-14T05:18:11;10.05;;;6.90;;
63714;SDS011;49858;48.956;9.076;2023-12-14T05:20:39;13.73;;;6.82;;
63714;SDS011;49858;48.956;9.076;2023-12-14T05:23:07;11.80;;;6.80;;
63714;SDS011;49858;48.956;9.076;2023-12-14T05:25:35;15.20;;;6.38;;
63714;SDS011;49858;48.956;9.076;2023-12-14T05:28:03;13.73;;;5.13;;
63714;SDS011;49858;48.956;9.076;2023-12-14T05:30:31;9.70;;;6.03;;
63714;SDS011;49858;48.956;9.076;2023-12-14T05:33:00;11.23;;;5.75;;
63714;SDS011;49858;48.956;9.076;2023-12-14T05:35:29;11.77;;;5.85;;
63714;SDS011;49858;48.956;9.076;2023-12-14T05:37:56;14.32;;;7.07;;
63714;SDS011;49858;48.956;9.076;2023-12-14T05:40:24;10.60;;;5.40;;
63714;SDS011;49858;48.956;9.076;2023-12-14T05:42:52;13.40;;;6.47;;
63714;SDS011;49858;48.956;9.076;2023-12-14T05:45:20;13.82;;;5.43;;
63714;SDS011;49858;48.956;9.076;2023-12-14T05:47:48;11.32;;;5.45;;
63714;SDS011;49858;48.956;9.076;2023-12-14T05:50:19;10.73;;;4.43;;
63714;SDS011;49858;48.956;9.076;2023-12-14T05:52:48;11.13;;;5.72;;
63714;SDS011;49858;48.956;9.076;2023-12-14T05:55:17;12.27;;;6.60;;
63714;SDS011;49858;48.956;9.076;2023-12-14T05:57:48;9.52;;;5.05;;
63714;SDS011;49858;48.956;9.076;2023-12-14T06:00:17;16.45;;;7.85;;
63714;SDS011;49858;48.956;9.076;2023-12-14T06:02:45;10.60;;;5.35;;
63714;SDS011;49858;48.956;9.076;2023-12-14T06:05:13;11.48;;;6.50;;
63714;SDS011;49858;48.956;9.076;2023-12-14T06:07:42;17.52;;;5.93;;
63714;SDS011;49858;48.956;9.076;2023-12-14T06:10:10;11.35;;;5.85;;
63714;SDS011;49858;48.956;9.076;2023-12-14T06:12:38;12.80;;;7.95;;
63714;SDS011;49858;48.956;9.076;2023-12-14T06:15:06;13.23;;;5.40;;
63714;SDS011;49858;48.956;9.076;2023-12-14T06:17:35;6.07;;;4.05;;
63714;SDS011;49858;48.956;9.076;2023-12-14T06:20:04;7.80;;;4.90;;
63714;SDS011;49858;48.956;9.076;2023-12-14T06:22:33;8.43;;;5.60;;
63714;SDS011;49858;48.956;9.076;2023-12-14T06:25:03;12.82;;;6.07;;
63714;SDS011;49858;48.956;9.076;2023-12-14T06:27:31;12.38;;;5.50;;
63714;SDS011;49858;48.956;9.076;2023-12-14T06:29:59;11.40;;;5.72;;
63714;SDS011;49858;48.956;9.076;2023-12-14T06:32:27;9.95;;;5.45;;
63714;SDS011;49858;48.956;9.076;2023-12-14T06:34:56;16.58;;;7.50;;
63714;SDS011;49858;48.956;9.076;2023-12-14T06:37:23;18.88;;;8.27;;
63714;SDS011;49858;48.956;9.076;2023-12-14T06:39:51;15.13;;;8.77;;
63714;SDS011;49858;48.956;9.076;2023-12-14T06:42:20;8.63;;;5.57;;
63714;SDS011;49858;48.956;9.076;2023-12-14T06:44:48;11.80;;;6.10;;
63714;SDS011;49858;48.956;9.076;2023-12-14T06:47:16;15.10;;;6.50;;
63714;SDS011;49858;48.956;9.076;2023-12-14T06:49:44;20.08;;;9.95;;
63714;SDS011;49858;48.956;9.076;2023-12-14T06:52:12;20.55;;;9.52;;
63714;SDS011;49858;48.956;9.076;2023-12-14T06:54:40;13.32;;;6.15;;
63714;SDS011;49858;48.956;9.076;2023-12-14T06:57:07;18.08;;;9.50;;
63714;SDS011;49858;48.956;9.076;2023-12-14T06:59:37;10.05;;;6.88;;
63714;SDS011;49858;48.956;9.076;2023-12-14T07:02:05;16.17;;;8.38;;
63714;SDS011;49858;48.956;9.076;2023-12-14T07:04:33;19.90;;;8.10;;
63714;SDS011;49858;48.956;9.076;2023-12-14T07:07:01;14.27;;;6.05;;
63714;SDS011;49858;48.956;9.076;2023-12-14T07:09:29;8.18;;;5.50;;
63714;SDS011;49858;48.956;9.076;2023-12-14T07:11:58;13.10;;;6.35;;
63714;SDS011;49858;48.956;9.076;2023-12-14T07:14:28;11.57;;;7.10;;
63714;SDS011;49858;48.956;9.076;2023-12-14T07:16:58;14.93;;;5.70;;
63714;SDS011;49858;48.956;9.076;2023-12-14T07:19:26;13.10;;;6.97;;
63714;SDS011;49858;48.956;9.076;2023-12-14T07:21:53;16.05;;;7.55;;
63714;SDS011;49858;48.956;9.076;2023-12-14T07:24:21;13.43;;;6.75;;
63714;SDS011;49858;48.956;9.076;2023-12-14T07:26:49;12.57;;;6.85;;
63714;SDS011;49858;48.956;9.076;2023-12-14T07:29:17;17.08;;;7.07;;
63714;SDS011;49858;48.956;9.076;2023-12-14T07:31:45;12.50;;;7.35;;
63714;SDS011;49858;48.956;9.076;2023-12-14T07:34:14;8.88;;;4.63;;
63714;SDS011;49858;48.956;9.076;2023-12-14T07:36:42;14.10;;;7.82;;
63714;SDS011;49858;48.956;9.076;2023-12-14T07:39:10;14.80;;;7.47;;
63714;SDS011;49858;48.956;9.076;2023-12-14T07:41:38;18.70;;;9.32;;
63714;SDS011;49858;48.956;9.076;2023-12-14T07:44:06;18.58;;;7.85;;
63714;SDS011;49858;48.956;9.076;2023-12-14T07:46:35;24.95;;;10.95;;
63714;SDS011;49858;48.956;9.076;2023-12-14T07:49:06;26.27;;;11.23;;
63714;SDS011;49858;48.956;9.076;2023-12-14T07:51:35;24.48;;;11.57;;
63714;SDS011;49858;48.956;9.076;2023-12-14T07:54:03;25.58;;;12.13;;
63714;SDS011;49858;48.956;9.076;2023-12-14T07:56:31;21.25;;;11.25;;
63714;SDS011;49858;48.956;9.076;2023-12-14T07:58:59;28.00;;;12.70;;
63714;SDS011;49858;48.956;9.076;2023-12-14T08:01:27;22.40;;;10.43;;
63714;SDS011;49858;48.956;9.076;2023-12-14T08:03:55;29.15;;;13.02;;
63714;SDS011;49858;48.956;9.076;2023-12-14T08:06:23;26.30;;;10.52;;
63714;SDS011;49858;48.956;9.076;2023-12-14T08:08:52;26.42;;;11.23;;
63714;SDS011;49858;48.956;9.076;2023-12-14T08:11:20;27.42;;;11.18;;
63714;SDS011;49858;48.956;9.076;2023-12-14T08:13:48;25.75;;;10.73;;
63714;SDS011;49858;48.956;9.076;2023-12-14T08:16:16;10.15;;;5.55;;
63714;SDS011;49858;48.956;9.076;2023-12-14T08:18:45;13.15;;;7.32;;
63714;SDS011;49858;48.956;9.076;2023-12-14T08:21:14;14.95;;;6.78;;
63714;SDS011;49858;48.956;9.076;2023-12-14T08:23:42;12.80;;;8.18;;
63714;SDS011;49858;48.956;9.076;2023-12-14T08:26:11;25.33;;;11.38;;
63714;SDS011;49858;48.956;9.076;2023-12-14T08:28:40;23.65;;;12.50;;
63714;SDS011;49858;48.956;9.076;2023-12-14T08:31:08;21.10;;;11.65;;
63714;SDS011;49858;48.956;9.076;2023-12-14T08:33:37;18.08;;;9.93;;
63714;SDS011;49858;48.956;9.076;2023-12-14T08:36:05;14.10;;;6.15;;
63714;SDS011;49858;48.956;9.076;2023-12-14T08:38:33;15.20;;;6.82;;
63714;SDS011;49858;48.956;9.076;2023-12-14T08:41:01;18.42;;;9.27;;
63714;SDS011;49858;48.956;9.076;2023-12-14T08:43:30;28.90;;;12.10;;
63714;SDS011;49858;48.956;9.076;2023-12-14T08:46:01;47.60;;;18.35;;
63714;SDS011;49858;48.956;9.076;2023-12-14T08:48:29;18.48;;;8.88;;
63714;SDS011;49858;48.956;9.076;2023-12-14T08:50:57;28.58;;;12.65;;
63714;SDS011;49858;48.956;9.076;2023-12-14T08:53:25;31.00;;;12.57;;
63714;SDS011;49858;48.956;9.076;2023-12-14T08:55:53;26.52;;;11.90;;
63714;SDS011;49858;48.956;9.076;2023-12-14T08:58:21;22.17;;;9.13;;
63714;SDS011;49858;48.956;9.076;2023-12-14T09:00:52;18.10;;;9.10;;
63714;SDS011;49858;48.956;9.076;2023-12-14T09:03:20;16.35;;;9.02;;
63714;SDS011;49858;48.956;9.076;2023-12-14T09:05:48;10.48;;;7.15;;
63714;SDS011;49858;48.956;9.076;2023-12-14T09:08:16;31.95;;;12.65;;
63714;SDS011;49858;48.956;9.076;2023-12-14T09:10:44;17.20;;;9.32;;
63714;SDS011;49858;48.956;9.076;2023-12-14T09:13:12;20.58;;;9.20;;
63714;SDS011;49858;48.956;9.076;2023-12-14T09:15:40;10.48;;;4.53;;
63714;SDS011;49858;48.956;9.076;2023-12-14T09:18:09;17.42;;;9.50;;
63714;SDS011;49858;48.956;9.076;2023-12-14T09:20:37;19.35;;;10.65;;
63714;SDS011;49858;48.956;9.076;2023-12-14T09:23:07;22.10;;;10.25;;
63714;SDS011;49858;48.956;9.076;2023-12-14T09:25:35;26.30;;;13.98;;
63714;SDS011;49858;48.956;9.076;2023-12-14T09:28:03;28.75;;;11.02;;
63714;SDS011;49858;48.956;9.076;2023-12-14T09:30:31;19.40;;;8.43;;
63714;SDS011;49858;48.956;9.076;2023-12-14T09:32:59;22.73;;;10.40;;
63714;SDS011;49858;48.956;9.076;2023-12-14T09:35:28;24.75;;;11.43;;
63714;SDS011;49858;48.956;9.076;2023-12-14T09:37:56;27.90;;;12.07;;
63714;SDS011;49858;48.956;9.076;2023-12-14T09:40:24;26.38;;;10.55;;
63714;SDS011;49858;48.956;9.076;2023-12-14T09:42:51;23.00;;;10.57;;
63714;SDS011;49858;48.956;9.076;2023-12-14T09:45:21;20.20;;;8.73;;
63714;SDS011;49858;48.956;9.076;2023-12-14T09:47:52;12.43;;;5.93;;
63714;SDS011;49858;48.956;9.076;2023-12-14T09:50:20;23.67;;;9.85;;
63714;SDS011;49858;48.956;9.076;2023-12-14T09:52:52;15.25;;;7.22;;
63714;SDS011;49858;48.956;9.076;2023-12-14T09:55:19;20.02;;;9.40;;
63714;SDS011;49858;48.956;9.076;2023-12-14T09:57:47;17.13;;;7.13;;
63714;SDS011;49858;48.956;9.076;2023-12-14T10:00:30;23.02;;;10.23;;
63714;SDS011;49858;48.956;9.076;2023-12-14T10:05:50;22.05;;;9.73;;
63714;SDS011;49858;48.956;9.076;2023-12-14T10:08:20;20.75;;;8.30;;
63714;SDS011;49858;48.956;9.076;2023-12-14T10:10:48;19.05;;;8.27;;
63714;SDS011;49858;48.956;9.076;2023-12-14T10:13:20;14.73;;;7.75;;
63714;SDS011;49858;48.956;9.076;2023-12-14T10:15:49;9.82;;;5.15;;
63714;SDS011;49858;48.956;9.076;2023-12-14T10:18:23;20.38;;;7.07;;
63714;SDS011;49858;48.956;9.076;2023-12-14T10:20:52;16.50;;;5.85;;
63714;SDS011;49858;48.956;9.076;2023-12-14T10:23:21;16.33;;;7.78;;
63714;SDS011;49858;48.956;9.076;2023-12-14T10:25:49;10.00;;;5.45;;
63714;SDS011;49858;48.956;9.076;2023-12-14T10:28:17;9.40;;;5.32;;
63714;SDS011;49858;48.956;9.076;2023-12-14T10:30:45;12.93;;;6.32;;
63714;SDS011;49858;48.956;9.076;2023-12-14T10:33:13;15.63;;;7.75;;
63714;SDS011;49858;48.956;9.076;2023-12-14T10:35:43;21.05;;;7.40;;
63714;SDS011;49858;48.956;9.076;2023-12-14T10:38:13;15.00;;;6.82;;
63714;SDS011;49858;48.956;9.076;2023-12-14T10:40:45;5.65;;;3.30;;
63714;SDS011;49858;48.956;9.076;2023-12-14T10:43:13;14.95;;;6.10;;
63714;SDS011;49858;48.956;9.076;2023-12-14T10:46:04;8.65;;;3.38;;
63714;SDS011;49858;48.956;9.076;2023-12-14T10:48:34;6.97;;;4.30;;
63714;SDS011;49858;48.956;9.076;2023-12-14T10:51:03;7.93;;;3.97;;
63714;SDS011;49858;48.956;9.076;2023-12-14T10:53:33;13.60;;;6.97;;
63714;SDS011;49858;48.956;9.076;2023-12-14T10:56:03;16.20;;;7.10;;
63714;SDS011;49858;48.956;9.076;2023-12-14T10:58:44;11.00;;;5.95;;
63714;SDS011;49858;48.956;9.076;2023-12-14T11:01:14;10.07;;;6.00;;
63714;SDS011;49858;48.956;9.076;2023-12-14T11:03:47;14.63;;;6.70;;
63714;SDS011;49858;48.956;9.076;2023-12-14T11:06:29;17.17;;;8.55;;
63714;SDS011;49858;48.956;9.076;2023-12-14T11:08:59;19.75;;;8.23;;
63714;SDS011;49858;48.956;9.076;2023-12-14T11:11:39;10.35;;;5.57;;
63714;SDS011;49858;48.956;9.076;2023-12-14T11:14:08;14.00;;;6.75;;
63714;SDS011;49858;48.956;9.076;2023-12-14T11:16:38;19.58;;;8.80;;
63714;SDS011;49858;48.956;9.076;2023-12-14T11:19:23;11.38;;;5.32;;
63714;SDS011;49858;48.956;9.076;2023-12-14T11:22:08;9.30;;;4.97;;
63714;SDS011;49858;48.956;9.076;2023-12-14T11:24:41;10.40;;;5.22;;
63714;SDS011;49858;48.956;9.076;2023-12-14T11:27:12;6.32;;;4.25;;
63714;SDS011;49858;48.956;9.076;2023-12-14T11:29:40;15.07;;;8.02;;
63714;SDS011;49858;48.956;9.076;2023-12-14T11:32:08;12.57;;;6.72;;
63714;SDS011;49858;48.956;9.076;2023-12-14T11:34:38;8.80;;;3.92;;
63714;SDS011;49858;48.956;9.076;2023-12-14T11:37:07;8.57;;;5.07;;
63714;SDS011;49858;48.956;9.076;2023-12-14T11:39:35;11.68;;;6.40;;
63714;SDS011;49858;48.956;9.076;2023-12-14T11:42:05;10.52;;;5.90;;
63714;SDS011;49858;48.956;9.076;2023-12-14T11:44:36;10.30;;;5.45;;
63714;SDS011;49858;48.956;9.076;2023-12-14T11:47:05;10.82;;;5.40;;
63714;SDS011;49858;48.956;9.076;2023-12-14T11:49:32;18.75;;;7.10;;
63714;SDS011;49858;48.956;9.076;2023-12-14T11:52:03;7.00;;;4.60;;
63714;SDS011;49858;48.956;9.076;2023-12-14T11:54:32;10.90;;;5.97;;
63714;SDS011;49858;48.956;9.076;2023-12-14T11:57:00;10.80;;;5.38;;
63714;SDS011;49858;48.956;9.076;2023-12-14T11:59:29;14.95;;;5.45;;
63714;SDS011;49858;48.956;9.076;2023-12-14T12:02:00;15.07;;;6.22;;
63714;SDS011;49858;48.956;9.076;2023-12-14T12:04:29;6.05;;;3.22;;
63714;SDS011;49858;48.956;9.076;2023-12-14T12:07:03;5.25;;;2.75;;
63714;SDS011;49858;48.956;9.076;2023-12-14T12:09:37;5.22;;;2.88;;
63714;SDS011;49858;48.956;9.076;2023-12-14T12:12:08;3.35;;;1.85;;
63714;SDS011;49858;48.956;9.076;2023-12-14T12:14:37;1.48;;;1.20;;
63714;SDS011;49858;48.956;9.076;2023-12-14T12:17:07;3.95;;;2.15;;
63714;SDS011;49858;48.956;9.076;2023-12-14T12:19:36;2.90;;;2.22;;
63714;SDS011;49858;48.956;9.076;2023-12-14T12:22:05;5.25;;;2.50;;
63714;SDS011;49858;48.956;9.076;2023-12-14T12:24:32;6.50;;;2.55;;
63714;SDS011;49858;48.956;9.076;2023-12-14T12:27:02;7.25;;;3.42;;
63714;SDS011;49858;48.956;9.076;2023-12-14T12:29:31;7.22;;;4.13;;
63714;SDS011;49858;48.956;9.076;2023-12-14T12:31:59;5.13;;;3.22;;
63714;SDS011;49858;48.956;9.076;2023-12-14T12:34:28;9.32;;;4.45;;
63714;SDS011;49858;48.956;9.076;2023-12-14T12:36:56;5.65;;;3.67;;
63714;SDS011;49858;48.956;9.076;2023-12-14T12:39:25;7.15;;;4.13;;
63714;SDS011;49858;48.956;9.076;2023-12-14T12:41:54;8.90;;;4.43;;
63714;SDS011;49858;48.956;9.076;2023-12-14T12:44:22;7.82;;;4.65;;
63714;SDS011;49858;48.956;9.076;2023-12-14T12:46:50;10.20;;;4.97;;
63714;SDS011;49858;48.956;9.076;2023-12-14T12:49:37;7.75;;;4.22;;
63714;SDS011;49858;48.956;9.076;2023-12-14T12:52:06;9.55;;;4.63;;
63714;SDS011;49858;48.956;9.076;2023-12-14T12:54:33;10.02;;;5.32;;
63714;SDS011;49858;48.956;9.076;2023-12-14T12:57:01;6.45;;;4.68;;
63714;SDS011;49858;48.956;9.076;2023-12-14T12:59:29;9.00;;;4.63;;
63714;SDS011;49858;48.956;9.076;2023-12-14T13:01:57;5.65;;;3.10;;
63714;SDS011;49858;48.956;9.076;2023-12-14T13:04:25;4.18;;;2.40;;
63714;SDS011;49858;48.956;9.076;2023-12-14T13:06:58;5.65;;;2.00;;
63714;SDS011;49858;48.956;9.076;2023-12-14T13:09:28;4.07;;;2.67;;
63714;SDS011;49858;48.956;9.076;2023-12-14T13:11:56;8.50;;;3.20;;
63714;SDS011;49858;48.956;9.076;2023-12-14T13:14:24;6.28;;;3.03;;
63714;SDS011;49858;48.956;9.076;2023-12-14T13:16:52;8.02;;;4.00;;
63714;SDS011;49858;48.956;9.076;2023-12-14T13:19:20;6.78;;;3.15;;
63714;SDS011;49858;48.956;9.076;2023-12-14T13:21:49;7.75;;;4.22;;
63714;SDS011;49858;48.956;9.076;2023-12-14T13:24:21;6.95;;;3.88;;
63714;SDS011;49858;48.956;9.076;2023-12-14T13:26:49;8.05;;;3.83;;
63714;SDS011;49858;48.956;9.076;2023-12-14T13:29:17;8.38;;;4.50;;
63714;SDS011;49858;48.956;9.076;2023-12-14T13:31:47;12.98;;;4.78;;
63714;SDS011;49858;48.956;9.076;2023-12-14T13:34:15;13.10;;;6.03;;
63714;SDS011;49858;48.956;9.076;2023-12-14T13:36:43;11.02;;;5.68;;
63714;SDS011;49858;48.956;9.076;2023-12-14T13:39:11;18.38;;;8.13;;
63714;SDS011;49858;48.956;9.076;2023-12-14T13:41:40;14.38;;;6.93;;
63714;SDS011;49858;48.956;9.076;2023-12-14T13:44:16;16.98;;;8.00;;
63714;SDS011;49858;48.956;9.076;2023-12-14T13:46:44;20.27;;;8.35;;
63714;SDS011;49858;48.956;9.076;2023-12-14T13:49:12;19.25;;;8.70;;
63714;SDS011;49858;48.956;9.076;2023-12-14T13:51:40;20.52;;;10.48;;
63714;SDS011;49858;48.956;9.076;2023-12-14T13:54:08;16.23;;;8.07;;
63714;SDS011;49858;48.956;9.076;2023-12-14T13:56:36;16.45;;;7.75;;
63714;SDS011;49858;48.956;9.076;2023-12-14T13:59:05;15.90;;;7.90;;
63714;SDS011;49858;48.956;9.076;2023-12-14T14:01:33;15.07;;;7.25;;
63714;SDS011;49858;48.956;9.076;2023-12-14T14:04:00;18.20;;;7.03;;
63714;SDS011;49858;48.956;9.076;2023-12-14T14:06:28;15.95;;;7.32;;
63714;SDS011;49858;48.956;9.076;2023-12-14T14:08:57;17.77;;;7.28;;
63714;SDS011;49858;48.956;9.076;2023-12-14T14:11:25;16.70;;;7.28;;
63714;SDS011;49858;48.956;9.076;2023-12-14T14:13:53;13.63;;;6.93;;
63714;SDS011;49858;48.956;9.076;2023-12-14T14:16:22;15.35;;;7.25;;
63714;SDS011;49858;48.956;9.076;2023-12-14T14:18:51;14.02;;;7.50;;
63714;SDS011;49858;48.956;9.076;2023-12-14T14:21:19;16.05;;;7.57;;
63714;SDS011;49858;48.956;9.076;2023-12-14T14:23:47;16.52;;;7.50;;
63714;SDS011;49858;48.956;9.076;2023-12-14T14:26:15;19.05;;;7.78;;
63714;SDS011;49858;48.956;9.076;2023-12-14T14:28:43;17.75;;;8.52;;
63714;SDS011;49858;48.956;9.076;2023-12-14T14:31:14;15.88;;;9.00;;
63714;SDS011;49858;48.956;9.076;2023-12-14T14:33:44;17.25;;;8.73;;
63714;SDS011;49858;48.956;9.076;2023-12-14T14:36:13;15.90;;;7.97;;
63714;SDS011;49858;48.956;9.076;2023-12-14T14:38:41;21.85;;;8.10;;
63714;SDS011;49858;48.956;9.076;2023-12-14T14:41:09;18.02;;;7.82;;
63714;SDS011;49858;48.956;9.076;2023-12-14T14:43:37;18.52;;;8.82;;
63714;SDS011;49858;48.956;9.076;2023-12-14T14:46:06;15.40;;;7.68;;
63714;SDS011;49858;48.956;9.076;2023-12-14T14:48:34;19.13;;;9.35;;
63714;SDS011;49858;48.956;9.076;2023-12-14T14:51:05;22.25;;;9.50;;